createdAt,value
2022-09-15T00:03:46.347Z,99.90
2022-09-15T00:06:14.944Z,99.90
2022-09-15T00:08:43.114Z,99.90
2022-09-15T00:11:20.763Z,99.90
2022-09-15T00:13:49.069Z,99.90
2022-09-15T00:16:19.083Z,99.90
2022-09-15T00:18:47.439Z,99.90
2022-09-15T00:21:18.413Z,99.90
2022-09-15T00:23:48.048Z,99.90
2022-09-15T00:26:20.499Z,99.90
2022-09-15T00:28:49.763Z,99.90
2022-09-15T00:32:07.710Z,99.90
2022-09-15T00:34:35.538Z,99.90
2022-09-15T00:37:03.285Z,99.90
2022-09-15T00:39:30.797Z,99.90
2022-09-15T00:41:58.473Z,99.90
2022-09-15T00:44:44.633Z,99.90
2022-09-15T00:47:19.564Z,99.90
2022-09-15T01:02:43.403Z,99.90
2022-09-15T01:05:21.490Z,99.90
2022-09-15T01:32:21.357Z,99.90
2022-09-15T01:35:02.688Z,99.90
2022-09-15T02:03:01.262Z,99.90
2022-09-15T02:05:42.905Z,99.90
2022-09-15T02:08:27.632Z,99.90
2022-09-15T02:19:19.257Z,99.90
2022-09-15T02:37:10.629Z,99.90
2022-09-15T03:02:31.729Z,99.90
2022-09-15T03:25:09.152Z,99.90
2022-09-15T04:12:30.161Z,99.90
2022-09-15T04:14:58.246Z,99.90
2022-09-15T04:19:55.013Z,99.90
2022-09-15T04:27:20.692Z,99.90
2022-09-15T04:29:52.011Z,99.90
2022-09-15T04:32:22.215Z,99.90
2022-09-15T04:37:19.023Z,99.90
2022-09-15T04:39:46.770Z,99.90
2022-09-15T04:42:16.124Z,99.90
2022-09-15T04:44:43.813Z,99.90
2022-09-15T04:47:11.504Z,99.90
2022-09-15T04:49:39.934Z,99.90
2022-09-15T04:52:09.732Z,99.90
2022-09-15T04:54:38.775Z,99.90
2022-09-15T05:04:32.391Z,99.90
2022-09-15T05:07:00.125Z,99.90
2022-09-15T05:09:30.137Z,99.90
2022-09-15T05:14:26.074Z,99.90
2022-09-15T05:19:22.052Z,99.90
2022-09-15T05:21:50.834Z,99.90
2022-09-15T05:24:18.627Z,99.90
2022-09-15T05:29:15.734Z,99.90
2022-09-15T05:31:43.721Z,99.90
2022-09-15T05:34:11.494Z,99.90
2022-09-15T05:39:08.412Z,99.90
2022-09-15T05:41:35.970Z,99.90
2022-09-15T05:44:03.650Z,99.90
2022-09-15T05:46:31.786Z,99.90
2022-09-15T05:51:28.020Z,99.90
2022-09-15T05:53:56.329Z,99.90
2022-09-15T05:56:24.044Z,99.90
2022-09-15T05:58:52.552Z,99.90
2022-09-15T06:01:23.378Z,99.90
2022-09-15T06:03:51.603Z,99.90
2022-09-15T06:08:57.482Z,99.90
2022-09-15T06:11:30.961Z,99.90
2022-09-15T06:14:03.509Z,99.90
2022-09-15T06:16:36.238Z,99.90
2022-09-15T06:19:04.462Z,99.90
2022-09-15T06:21:34.408Z,99.90
2022-09-15T06:29:03.413Z,99.90
2022-09-15T06:31:33.165Z,99.90
2022-09-15T06:36:31.036Z,99.90
2022-09-15T06:41:47.085Z,99.90
2022-09-15T07:04:15.782Z,99.90
2022-09-15T07:06:43.393Z,99.90
2022-09-15T07:14:08.013Z,99.90
2022-09-15T07:16:36.265Z,99.90
2022-09-15T07:19:06.011Z,99.90
2022-09-15T07:21:37.919Z,99.90
2022-09-15T07:24:07.538Z,99.90
2022-09-15T07:26:35.741Z,99.90
2022-09-15T07:29:06.796Z,99.90
2022-09-15T07:31:36.478Z,99.90
2022-09-15T07:34:05.125Z,99.90
2022-09-15T07:36:32.909Z,99.90
2022-09-15T07:39:00.576Z,99.90
2022-09-15T07:41:30.265Z,99.90
2022-09-15T07:43:59.734Z,99.90
2022-09-15T07:46:30.436Z,99.90
2022-09-15T07:48:58.265Z,99.90
2022-09-15T07:51:26.814Z,99.90
2022-09-15T07:53:54.902Z,99.90
2022-09-15T07:56:24.569Z,99.90
2022-09-15T07:58:52.193Z,99.90
2022-09-15T08:01:20.761Z,99.90
2022-09-15T08:03:50.819Z,99.90
2022-09-15T08:06:20.700Z,99.90
2022-09-15T08:08:49.659Z,99.90
2022-09-15T08:11:19.968Z,99.90
2022-09-15T08:13:49.793Z,99.90
2022-09-15T08:16:20.792Z,99.90
2022-09-15T08:18:48.767Z,99.90
2022-09-15T08:21:20.505Z,99.90
2022-09-15T08:23:53.232Z,99.90
2022-09-15T08:26:20.961Z,99.90
2022-09-15T08:28:49.318Z,99.90
2022-09-15T08:31:18.167Z,99.90
2022-09-15T08:33:51.760Z,99.90
2022-09-15T08:36:19.869Z,99.90
2022-09-15T08:38:48.081Z,99.90
2022-09-15T08:41:24.755Z,99.90
2022-09-15T08:43:59.585Z,99.90
2022-09-15T08:46:39.574Z,99.90
2022-09-15T08:49:27.011Z,99.90
2022-09-15T08:52:10.886Z,99.90
2022-09-15T08:57:15.009Z,99.90
2022-09-15T09:02:32.544Z,99.90
2022-09-15T09:05:30.461Z,99.90
2022-09-15T09:08:17.080Z,99.90
2022-09-15T09:10:59.198Z,99.90
2022-09-15T09:14:03.713Z,99.90
2022-09-15T09:17:10.261Z,99.90
2022-09-15T09:19:55.870Z,99.90
2022-09-15T09:22:28.483Z,99.90
2022-09-15T09:25:00.117Z,99.90
2022-09-15T09:27:37.195Z,99.90
2022-09-15T09:30:16.865Z,99.90
2022-09-15T09:33:06.382Z,99.90
2022-09-15T09:35:33.966Z,99.90
2022-09-15T09:38:02.728Z,99.90
2022-09-15T09:40:33.931Z,99.90
2022-09-15T09:45:29.548Z,99.90
2022-09-15T09:48:21.338Z,99.90
2022-09-15T09:53:18.109Z,99.90
2022-09-15T09:55:48.474Z,99.90
2022-09-15T09:58:25.515Z,99.90
2022-09-15T10:00:53.692Z,99.90
2022-09-15T10:03:30.601Z,99.90
2022-09-15T10:06:29.565Z,99.90
2022-09-15T10:09:14.128Z,99.90
2022-09-15T10:14:30.546Z,99.90
2022-09-15T10:17:22.922Z,99.90
2022-09-15T10:19:56.102Z,99.90
2022-09-15T10:22:32.928Z,99.90
2022-09-15T10:25:02.270Z,99.90
2022-09-15T10:27:36.032Z,99.90
2022-09-15T10:30:13.568Z,99.90
2022-09-15T10:32:42.640Z,99.90
2022-09-15T10:35:15.873Z,99.90
2022-09-15T10:37:59.217Z,99.90
2022-09-15T10:40:46.186Z,99.90
2022-09-15T10:43:22.679Z,99.90
2022-09-15T10:45:55.070Z,99.90
2022-09-15T10:48:50.618Z,99.90
2022-09-15T10:51:57.194Z,99.90
2022-09-15T10:54:45.749Z,99.90
2022-09-15T10:57:41.276Z,99.90
2022-09-15T11:00:24.441Z,99.90
2022-09-15T11:03:27.467Z,99.90
2022-09-15T11:06:07.372Z,99.90
2022-09-15T11:08:47.260Z,99.90
2022-09-15T11:11:36.126Z,99.90
2022-09-15T11:14:32.949Z,99.90
2022-09-15T11:17:39.702Z,99.90
2022-09-15T11:20:40.024Z,99.90
2022-09-15T11:23:33.971Z,99.90
2022-09-15T11:26:12.618Z,99.90
2022-09-15T11:31:41.210Z,99.90
2022-09-15T11:37:07.888Z,99.90
2022-09-15T11:39:48.817Z,99.90
2022-09-15T11:42:33.047Z,99.90
2022-09-15T11:45:03.252Z,99.90
2022-09-15T11:50:10.676Z,99.90
2022-09-15T12:00:56.858Z,99.90
2022-09-15T12:03:56.055Z,99.90
2022-09-15T12:07:13.793Z,99.90
2022-09-15T12:09:42.488Z,99.90
2022-09-15T12:12:17.230Z,99.90
2022-09-15T12:14:47.523Z,99.90
2022-09-15T12:17:45.214Z,99.90
2022-09-15T12:20:23.411Z,99.90
2022-09-15T12:28:27.192Z,99.90
2022-09-15T12:31:27.142Z,99.90
2022-09-15T12:33:57.995Z,99.90
2022-09-15T12:36:34.525Z,99.90
2022-09-15T12:39:04.814Z,99.90
2022-09-15T12:41:33.316Z,99.90
2022-09-15T12:44:23.980Z,99.90
2022-09-15T12:46:57.249Z,99.90
2022-09-15T12:49:42.161Z,99.90
2022-09-15T12:52:12.843Z,99.90
2022-09-15T12:54:43.179Z,99.90
2022-09-15T12:57:49.842Z,99.90
2022-09-15T13:00:20.639Z,99.90
2022-09-15T13:02:52.777Z,99.90
2022-09-15T13:05:39.344Z,99.90
2022-09-15T13:08:31.516Z,99.90
2022-09-15T13:11:08.789Z,99.90
2022-09-15T13:13:43.996Z,99.90
2022-09-15T13:16:29.313Z,99.90
2022-09-15T13:19:26.971Z,99.90
2022-09-15T13:22:06.622Z,99.90
2022-09-15T13:24:59.265Z,99.90
2022-09-15T13:27:47.291Z,99.90
2022-09-15T13:30:24.582Z,99.90
2022-09-15T13:33:04.305Z,99.90
2022-09-15T13:36:09.986Z,99.90
2022-09-15T13:38:47.018Z,99.90
2022-09-15T13:41:33.879Z,99.90
2022-09-15T13:44:17.926Z,99.90
2022-09-15T13:47:06.975Z,99.90
2022-09-15T13:50:01.461Z,99.90
2022-09-15T13:53:07.037Z,99.90
2022-09-15T13:55:38.696Z,99.90
2022-09-15T14:01:05.793Z,99.90
2022-09-15T14:03:42.807Z,99.90
2022-09-15T14:06:14.319Z,99.90
2022-09-15T14:08:44.200Z,99.90
2022-09-15T14:11:14.274Z,99.90
2022-09-15T14:13:46.969Z,99.20
2022-09-15T14:16:27.814Z,98.30
2022-09-15T14:18:58.466Z,98.10
2022-09-15T14:21:32.373Z,97.90
2022-09-15T14:24:06.364Z,97.50
2022-09-15T14:26:44.565Z,95.50
2022-09-15T14:29:24.981Z,93.70
2022-09-15T14:31:53.925Z,90.50
2022-09-15T14:34:24.663Z,88.70
2022-09-15T14:37:07.376Z,86.20
2022-09-15T14:39:37.831Z,86.10
2022-09-15T14:42:32.815Z,86.20
2022-09-15T14:48:16.533Z,85.70
2022-09-15T14:50:46.591Z,86.40
2022-09-15T14:53:20.720Z,85.10
2022-09-15T14:56:22.849Z,85.80
2022-09-15T14:58:55.569Z,86.00
2022-09-15T15:01:32.838Z,87.00
2022-09-15T15:04:32.941Z,88.00
2022-09-15T15:07:04.503Z,88.40
2022-09-15T15:09:37.907Z,89.60
2022-09-15T15:12:13.215Z,90.40
2022-09-15T15:14:42.639Z,90.90
2022-09-15T15:17:24.486Z,91.40
2022-09-15T15:20:02.474Z,91.80
2022-09-15T15:22:30.323Z,91.80
2022-09-15T15:24:58.305Z,92.30
2022-09-15T15:27:35.238Z,92.40
2022-09-15T15:30:26.853Z,93.20
2022-09-15T15:32:55.398Z,93.90
2022-09-15T15:35:23.699Z,93.80
2022-09-15T15:38:02.374Z,93.90
2022-09-15T15:40:31.634Z,94.20
2022-09-15T15:43:07.200Z,94.40
2022-09-15T15:45:47.310Z,94.80
2022-09-15T15:48:15.041Z,95.60
2022-09-15T15:50:42.604Z,96.10
2022-09-15T15:53:10.046Z,96.90
2022-09-15T15:55:40.956Z,97.50
2022-09-15T15:58:13.418Z,98.60
2022-09-15T16:00:52.921Z,99.50
2022-09-15T16:03:21.823Z,99.90
2022-09-15T16:05:54.744Z,99.90
2022-09-15T16:08:34.907Z,99.90
2022-09-15T16:11:03.149Z,99.90
2022-09-15T16:13:31.628Z,99.90
2022-09-15T16:16:01.381Z,99.90
2022-09-15T16:18:29.591Z,99.90
2022-09-15T16:20:57.371Z,99.90
2022-09-15T16:23:25.112Z,99.90
2022-09-15T16:25:59.003Z,99.90
2022-09-15T16:28:26.611Z,99.90
2022-09-15T16:30:54.269Z,99.90
2022-09-15T16:33:21.878Z,99.90
2022-09-15T16:35:51.400Z,99.90
2022-09-15T16:38:20.514Z,99.90
2022-09-15T16:40:49.395Z,99.90
2022-09-15T16:43:19.734Z,99.90
2022-09-15T16:45:48.419Z,99.90
2022-09-15T16:48:16.188Z,99.90
2022-09-15T16:51:02.188Z,99.90
2022-09-15T16:53:32.879Z,99.90
2022-09-15T16:56:00.542Z,99.90
2022-09-15T16:58:28.543Z,99.90
2022-09-15T17:00:57.163Z,99.90
2022-09-15T17:03:26.735Z,99.80
2022-09-15T17:05:57.509Z,99.90
2022-09-15T17:08:29.352Z,99.90
2022-09-15T17:11:02.946Z,99.90
2022-09-15T17:13:33.042Z,99.90
2022-09-15T17:16:02.376Z,99.90
2022-09-15T17:18:30.666Z,99.90
2022-09-15T17:20:59.188Z,99.60
2022-09-15T17:23:38.061Z,98.80
2022-09-15T17:26:11.143Z,99.10
2022-09-15T17:28:39.557Z,99.10
2022-09-15T17:31:18.991Z,98.80
2022-09-15T17:33:47.899Z,99.30
2022-09-15T17:36:15.752Z,99.00
2022-09-15T17:38:45.346Z,99.40
2022-09-15T17:41:17.947Z,99.40
2022-09-15T17:43:45.728Z,98.70
2022-09-15T17:46:13.532Z,98.40
2022-09-15T17:48:41.168Z,98.70
2022-09-15T17:51:14.913Z,98.80
2022-09-15T17:53:43.396Z,98.20
2022-09-15T17:56:11.400Z,98.30
2022-09-15T17:58:39.023Z,98.50
2022-09-15T18:01:06.780Z,98.80
2022-09-15T18:03:37.132Z,98.40
2022-09-15T18:06:07.615Z,98.80
2022-09-15T18:08:36.348Z,98.90
2022-09-15T18:11:06.021Z,98.90
2022-09-15T18:13:34.104Z,99.10
2022-09-15T18:16:06.792Z,99.20
2022-09-15T18:18:34.690Z,99.30
2022-09-15T18:21:23.688Z,99.30
2022-09-15T18:23:51.512Z,99.90
2022-09-15T18:26:23.927Z,99.80
2022-09-15T18:31:22.441Z,99.90
2022-09-15T18:33:49.987Z,99.90
2022-09-15T18:36:17.738Z,99.90
2022-09-15T18:38:45.239Z,99.90
2022-09-15T18:41:13.046Z,99.90
2022-09-15T18:43:40.529Z,99.90
2022-09-15T18:46:08.103Z,99.90
2022-09-15T18:48:35.908Z,99.90
2022-09-15T18:51:08.558Z,99.90
2022-09-15T18:53:38.102Z,99.90
2022-09-15T18:56:13.261Z,99.90
2022-09-15T18:58:41.269Z,99.90
2022-09-15T19:01:09.136Z,99.90
2022-09-15T19:03:37.885Z,99.90
2022-09-15T19:06:07.168Z,99.90
2022-09-15T19:08:37.240Z,99.90
2022-09-15T19:11:05.268Z,99.90
2022-09-15T19:13:33.039Z,99.90
2022-09-15T19:16:05.671Z,99.90
2022-09-15T19:18:34.078Z,99.90
2022-09-15T19:21:10.599Z,99.90
2022-09-15T19:23:39.169Z,99.90
2022-09-15T19:26:09.319Z,99.90
2022-09-15T19:28:36.870Z,99.90
2022-09-15T19:31:05.181Z,99.90
2022-09-15T19:33:33.033Z,99.90
2022-09-15T19:36:26.898Z,99.90
2022-09-15T19:38:53.197Z,99.90
2022-09-15T19:41:20.880Z,99.90
2022-09-15T19:43:48.306Z,99.90
2022-09-15T19:46:18.390Z,99.90
2022-09-15T19:48:47.981Z,99.90
2022-09-15T19:51:17.598Z,99.90
2022-09-15T19:53:45.572Z,99.90
2022-09-15T19:56:18.878Z,99.90
2022-09-15T19:58:46.477Z,99.90
2022-09-15T20:01:14.756Z,99.90
2022-09-15T20:06:32.132Z,99.90
2022-09-15T20:09:00.561Z,99.90
2022-09-15T20:11:29.728Z,99.90
2022-09-15T20:13:57.851Z,99.90
2022-09-15T20:16:25.927Z,99.90
2022-09-15T20:18:54.883Z,99.90
2022-09-15T20:21:51.346Z,99.90
2022-09-15T20:24:20.873Z,99.90
2022-09-15T20:26:48.766Z,99.90
2022-09-15T20:29:16.471Z,99.90
2022-09-15T20:31:44.143Z,99.90
2022-09-15T20:34:11.867Z,99.90
2022-09-15T20:36:40.162Z,99.90
2022-09-15T20:39:13.217Z,99.90
2022-09-15T20:41:45.178Z,99.90
2022-09-15T20:44:13.325Z,99.90
2022-09-15T20:46:40.881Z,99.90
2022-09-15T20:49:09.377Z,99.90
2022-09-15T20:51:37.046Z,99.90
2022-09-15T20:54:05.209Z,99.90
2022-09-15T20:56:35.287Z,99.90
2022-09-15T20:59:04.100Z,99.90
2022-09-15T21:01:37.577Z,99.90
2022-09-15T21:04:07.732Z,99.90
2022-09-15T21:06:36.042Z,99.90
2022-09-15T21:09:04.936Z,99.90
2022-09-15T21:11:33.315Z,99.90
2022-09-15T21:14:01.534Z,99.90
2022-09-15T21:16:29.914Z,99.90
2022-09-15T21:18:58.621Z,99.90
2022-09-15T21:21:31.883Z,99.90
2022-09-15T21:24:03.769Z,99.90
2022-09-15T21:26:58.226Z,99.90
2022-09-15T21:29:27.831Z,99.90
2022-09-15T21:31:58.611Z,99.90
2022-09-15T21:34:26.507Z,99.90
2022-09-15T21:36:54.212Z,99.90
2022-09-15T21:39:21.758Z,99.90
2022-09-15T21:41:50.051Z,99.90
2022-09-15T21:44:17.780Z,99.90
2022-09-15T21:46:47.102Z,99.90
2022-09-15T21:49:15.017Z,99.90
2022-09-15T21:51:42.662Z,99.90
2022-09-15T21:54:10.380Z,99.90
2022-09-15T21:56:38.335Z,99.90
2022-09-15T21:59:08.971Z,99.90
2022-09-15T22:01:37.390Z,99.90
2022-09-15T22:04:07.330Z,99.90
2022-09-15T22:06:40.117Z,99.90
2022-09-15T22:09:26.717Z,99.90
2022-09-15T22:12:10.391Z,99.90
2022-09-15T22:17:06.072Z,99.90
2022-09-15T22:19:34.096Z,99.90
2022-09-15T22:22:02.609Z,99.90
2022-09-15T22:24:30.462Z,99.90
2022-09-15T22:26:58.152Z,99.90
2022-09-15T22:29:26.083Z,99.90
2022-09-15T22:31:53.691Z,99.90
2022-09-15T22:34:21.555Z,99.90
2022-09-15T22:36:49.464Z,99.90
2022-09-15T22:39:17.570Z,99.90
2022-09-15T22:41:45.162Z,99.90
2022-09-15T22:44:19.371Z,99.90
2022-09-15T22:46:47.493Z,99.90
2022-09-15T22:49:15.581Z,99.90
2022-09-15T22:51:43.346Z,99.90
2022-09-15T22:54:11.202Z,99.90
2022-09-15T22:56:38.731Z,99.90
2022-09-15T22:59:06.589Z,99.90
2022-09-15T23:01:34.201Z,99.90
2022-09-15T23:04:03.881Z,99.90
2022-09-15T23:06:35.180Z,99.90
2022-09-15T23:09:06.887Z,99.90
2022-09-15T23:11:36.019Z,99.90
2022-09-15T23:16:32.487Z,99.90
2022-09-15T23:19:00.630Z,99.90
2022-09-15T23:21:28.892Z,99.90
2022-09-15T23:23:56.498Z,99.90
2022-09-15T23:26:25.183Z,99.90
2022-09-15T23:28:54.122Z,99.90
2022-09-15T23:31:22.202Z,99.90
2022-09-15T23:33:50.056Z,99.90
2022-09-15T23:36:22.298Z,99.90
2022-09-15T23:38:50.769Z,99.90
2022-09-15T23:41:19.196Z,99.90
2022-09-15T23:43:47.161Z,99.90
2022-09-15T23:46:14.849Z,99.90
2022-09-15T23:48:42.710Z,99.90
2022-09-15T23:51:10.646Z,99.90
2022-09-15T23:53:38.757Z,99.90
2022-09-15T23:56:06.805Z,99.90
2022-09-15T23:58:34.663Z,99.90
